createdAt,value
2022-12-15T00:01:42.979Z,25.70
2022-12-15T00:04:28.163Z,24.93
2022-12-15T00:07:13.263Z,27.00
2022-12-15T00:09:58.434Z,26.40
2022-12-15T00:12:43.445Z,24.80
2022-12-15T00:15:28.506Z,26.13
2022-12-15T00:18:13.550Z,25.33
2022-12-15T00:20:58.737Z,23.93
2022-12-15T00:23:43.960Z,24.67
2022-12-15T00:26:28.985Z,24.63
2022-12-15T00:29:13.957Z,23.97
2022-12-15T00:31:59.176Z,23.70
2022-12-15T00:34:44.507Z,24.50
2022-12-15T00:37:29.623Z,23.57
2022-12-15T00:39:58.984Z,24.40
2022-12-15T00:42:28.815Z,24.03
2022-12-15T00:44:56.352Z,24.70
2022-12-15T00:47:23.079Z,23.90
2022-12-15T00:50:08.281Z,24.70
2022-12-15T00:52:54.028Z,24.70
2022-12-15T00:55:39.446Z,23.13
2022-12-15T00:58:24.846Z,25.30
2022-12-15T01:01:10.239Z,23.67
2022-12-15T01:03:55.084Z,23.73
2022-12-15T01:06:40.400Z,22.50
2022-12-15T01:09:27.889Z,23.73
2022-12-15T01:12:13.609Z,22.97
2022-12-15T01:14:59.465Z,23.37
2022-12-15T01:17:45.091Z,23.43
2022-12-15T01:20:18.420Z,23.00
2022-12-15T01:22:55.901Z,23.80
2022-12-15T01:25:24.937Z,23.40
2022-12-15T01:27:51.722Z,23.50
2022-12-15T01:30:21.035Z,24.63
2022-12-15T01:32:47.553Z,23.23
2022-12-15T01:35:14.266Z,23.10
2022-12-15T01:37:40.731Z,22.50
2022-12-15T01:40:27.588Z,22.53
2022-12-15T01:42:54.132Z,22.10
2022-12-15T01:45:41.910Z,24.20
2022-12-15T01:48:10.571Z,22.83
2022-12-15T01:50:43.170Z,23.00
2022-12-15T01:53:10.835Z,23.40
2022-12-15T01:55:39.071Z,22.00
2022-12-15T01:58:07.215Z,21.77
2022-12-15T02:00:34.586Z,22.77
2022-12-15T02:03:02.201Z,22.37
2022-12-15T02:05:30.677Z,22.47
2022-12-15T02:07:58.217Z,24.57
2022-12-15T02:10:29.259Z,22.27
2022-12-15T02:13:03.399Z,23.40
2022-12-15T02:15:48.052Z,23.03
2022-12-15T02:18:23.068Z,21.83
2022-12-15T02:21:29.859Z,23.30
2022-12-15T02:24:19.882Z,22.23
2022-12-15T02:27:26.961Z,22.83
2022-12-15T02:30:15.600Z,22.53
2022-12-15T02:33:01.331Z,22.70
2022-12-15T02:35:36.262Z,22.77
2022-12-15T02:38:02.677Z,23.27
2022-12-15T02:40:30.717Z,22.07
2022-12-15T02:42:58.357Z,22.73
2022-12-15T02:46:06.630Z,22.10
2022-12-15T02:49:13.931Z,21.50
2022-12-15T02:51:54.501Z,21.13
2022-12-15T02:54:39.775Z,22.90
2022-12-15T02:57:26.933Z,23.37
2022-12-15T03:00:06.235Z,22.10
2022-12-15T03:02:34.593Z,22.13
2022-12-15T03:05:01.367Z,22.90
2022-12-15T03:07:28.431Z,23.33
2022-12-15T03:10:01.291Z,23.63
2022-12-15T03:12:27.749Z,22.77
2022-12-15T03:14:54.264Z,22.63
2022-12-15T03:17:20.694Z,23.73
2022-12-15T03:19:47.129Z,22.37
2022-12-15T03:22:16.371Z,23.87
2022-12-15T03:24:43.013Z,22.43
2022-12-15T03:27:09.650Z,22.60
2022-12-15T03:29:36.209Z,23.23
2022-12-15T03:32:02.806Z,21.90
2022-12-15T03:34:29.351Z,22.20
2022-12-15T03:36:55.953Z,22.10
2022-12-15T03:39:22.452Z,23.27
2022-12-15T03:41:48.891Z,23.53
2022-12-15T03:44:15.291Z,21.23
2022-12-15T03:46:41.845Z,22.47
2022-12-15T03:49:08.292Z,23.10
2022-12-15T03:51:34.776Z,21.47
2022-12-15T03:54:01.252Z,22.87
2022-12-15T03:56:27.671Z,22.13
2022-12-15T03:58:54.276Z,23.93
2022-12-15T04:01:20.797Z,22.30
2022-12-15T04:03:47.638Z,23.13
2022-12-15T04:06:14.292Z,22.83
2022-12-15T04:08:40.809Z,25.47
2022-12-15T04:11:07.330Z,24.73
2022-12-15T04:13:34.339Z,23.63
2022-12-15T04:16:03.939Z,25.33
2022-12-15T04:18:32.175Z,24.90
2022-12-15T04:20:58.809Z,23.97
2022-12-15T04:23:25.428Z,25.10
2022-12-15T04:26:10.618Z,23.30
2022-12-15T04:28:55.631Z,24.23
2022-12-15T04:31:51.340Z,23.63
2022-12-15T04:34:42.171Z,23.73
2022-12-15T04:37:29.898Z,22.87
2022-12-15T04:40:14.837Z,25.07
2022-12-15T04:43:02.571Z,23.73
2022-12-15T04:45:47.787Z,24.37
2022-12-15T04:48:33.189Z,22.30
2022-12-15T04:51:18.432Z,25.57
2022-12-15T04:54:04.652Z,24.73
2022-12-15T04:56:50.890Z,24.10
2022-12-15T04:59:36.602Z,25.33
2022-12-15T05:02:21.646Z,24.37
2022-12-15T05:05:06.616Z,24.83
2022-12-15T05:07:51.991Z,26.23
2022-12-15T05:10:37.196Z,24.37
2022-12-15T05:13:24.394Z,24.83
2022-12-15T05:16:09.596Z,25.73
2022-12-15T05:18:54.776Z,25.27
2022-12-15T05:21:40.124Z,26.97
2022-12-15T05:24:25.293Z,24.30
2022-12-15T05:27:10.902Z,26.63
2022-12-15T05:29:55.940Z,27.40
2022-12-15T05:32:22.507Z,28.80
2022-12-15T05:34:48.941Z,27.07
2022-12-15T05:37:15.365Z,26.73
2022-12-15T05:39:42.310Z,28.63
2022-12-15T05:42:08.946Z,27.03
2022-12-15T05:44:35.383Z,27.90
2022-12-15T05:47:01.989Z,27.10
2022-12-15T05:49:28.423Z,30.13
2022-12-15T05:51:54.898Z,29.77
2022-12-15T05:54:21.452Z,31.77
2022-12-15T05:56:50.116Z,30.50
2022-12-15T05:59:17.438Z,29.53
2022-12-15T06:01:44.075Z,30.20
2022-12-15T06:04:13.037Z,30.57
2022-12-15T06:06:40.302Z,30.60
2022-12-15T06:09:06.915Z,31.03
2022-12-15T06:11:33.417Z,31.60
2022-12-15T06:13:59.844Z,31.93
2022-12-15T06:16:28.317Z,31.47
2022-12-15T06:18:58.531Z,30.57
2022-12-15T06:21:27.952Z,30.97
2022-12-15T06:23:55.824Z,32.10
2022-12-15T06:26:28.151Z,31.50
2022-12-15T06:28:57.014Z,31.80
2022-12-15T06:31:25.721Z,32.03
2022-12-15T06:33:59.171Z,33.40
2022-12-15T06:36:28.679Z,32.57
2022-12-15T06:38:58.894Z,32.97
2022-12-15T06:41:25.417Z,34.27
2022-12-15T06:43:53.522Z,34.77
2022-12-15T06:46:20.353Z,33.57
2022-12-15T06:48:47.093Z,34.63
2022-12-15T06:51:17.109Z,33.87
2022-12-15T06:54:04.895Z,33.20
2022-12-15T06:56:36.347Z,35.23
2022-12-15T06:59:05.382Z,32.60
2022-12-15T07:01:33.222Z,33.93
2022-12-15T07:04:01.829Z,32.67
2022-12-15T07:06:34.162Z,31.87
2022-12-15T07:09:00.620Z,34.87
2022-12-15T07:11:27.134Z,34.00
2022-12-15T07:13:54.359Z,34.53
2022-12-15T07:16:22.273Z,34.07
2022-12-15T07:18:48.782Z,35.87
2022-12-15T07:21:15.253Z,35.30
2022-12-15T07:23:58.061Z,35.40
2022-12-15T07:26:25.648Z,34.93
2022-12-15T07:28:53.459Z,36.53
2022-12-15T07:31:20.393Z,37.17
2022-12-15T07:33:48.379Z,37.67
2022-12-15T07:36:15.161Z,35.57
2022-12-15T07:38:41.683Z,36.10
2022-12-15T07:41:09.532Z,37.10
2022-12-15T07:43:36.755Z,35.53
2022-12-15T07:46:05.098Z,35.63
2022-12-15T07:48:32.676Z,37.33
2022-12-15T07:51:07.374Z,38.47
2022-12-15T07:53:36.011Z,37.83
2022-12-15T07:56:08.831Z,38.93
2022-12-15T07:58:36.877Z,40.90
2022-12-15T08:01:06.083Z,38.53
2022-12-15T08:03:33.245Z,37.27
2022-12-15T08:06:04.902Z,39.57
2022-12-15T08:08:35.349Z,36.50
2022-12-15T08:11:06.256Z,39.67
2022-12-15T08:16:21.331Z,37.27
2022-12-15T08:18:48.802Z,37.47
2022-12-15T08:21:15.356Z,38.70
2022-12-15T08:23:41.769Z,39.30
2022-12-15T08:26:10.613Z,38.37
2022-12-15T08:28:38.426Z,38.70
2022-12-15T08:31:10.320Z,37.80
2022-12-15T08:33:37.816Z,37.80
2022-12-15T08:36:08.186Z,37.20
2022-12-15T08:38:35.832Z,36.80
2022-12-15T08:41:19.680Z,37.93
2022-12-15T08:43:49.065Z,36.73
2022-12-15T08:46:27.443Z,36.03
2022-12-15T08:48:54.456Z,37.07
2022-12-15T08:51:22.494Z,35.97
2022-12-15T08:53:49.366Z,38.77
2022-12-15T08:56:18.398Z,37.90
2022-12-15T08:58:46.583Z,41.13
2022-12-15T09:01:22.445Z,39.07
2022-12-15T09:03:51.560Z,42.23
2022-12-15T09:06:20.844Z,42.83
2022-12-15T09:08:48.570Z,43.20
2022-12-15T09:11:17.609Z,41.97
2022-12-15T09:13:44.491Z,42.57
2022-12-15T09:16:14.054Z,43.07
2022-12-15T09:18:59.649Z,45.03
2022-12-15T09:21:29.064Z,45.23
2022-12-15T09:24:00.733Z,44.37
2022-12-15T09:26:33.029Z,48.03
2022-12-15T09:29:00.183Z,44.27
2022-12-15T09:31:32.768Z,45.33
2022-12-15T09:34:00.587Z,45.60
2022-12-15T09:36:27.656Z,44.57
2022-12-15T09:38:54.166Z,44.93
2022-12-15T09:41:24.254Z,41.30
2022-12-15T09:43:53.995Z,28.80
2022-12-15T09:46:41.956Z,30.23
2022-12-15T09:49:18.341Z,29.33
2022-12-15T09:51:50.277Z,29.67
2022-12-15T09:54:16.735Z,29.50
2022-12-15T09:56:56.072Z,30.03
2022-12-15T09:59:47.079Z,29.00
2022-12-15T10:02:24.586Z,27.80
2022-12-15T10:05:50.141Z,26.67
2022-12-15T10:08:15.555Z,27.90
2022-12-15T10:10:57.844Z,30.43
2022-12-15T10:13:53.500Z,29.90
2022-12-15T10:16:27.630Z,29.67
2022-12-15T10:19:03.419Z,28.60
2022-12-15T10:21:32.433Z,30.37
2022-12-15T10:24:12.660Z,30.27
2022-12-15T10:26:39.930Z,32.10
2022-12-15T10:29:23.239Z,33.57
2022-12-15T10:31:55.011Z,31.60
2022-12-15T10:34:29.476Z,33.37
2022-12-15T10:36:57.526Z,30.63
2022-12-15T10:39:29.362Z,30.17
2022-12-15T10:42:39.550Z,32.23
2022-12-15T10:45:29.867Z,29.43
2022-12-15T10:47:59.731Z,29.63
2022-12-15T10:50:27.635Z,30.07
2022-12-15T10:52:54.196Z,32.83
2022-12-15T10:55:43.779Z,32.83
2022-12-15T10:58:22.023Z,35.30
2022-12-15T11:00:50.858Z,33.70
2022-12-15T11:03:26.231Z,34.67
2022-12-15T11:05:54.790Z,36.40
2022-12-15T11:08:22.580Z,33.03
2022-12-15T11:11:26.010Z,33.07
2022-12-15T11:14:10.252Z,32.63
2022-12-15T11:16:43.966Z,33.00
2022-12-15T11:19:16.929Z,32.63
2022-12-15T11:21:49.051Z,30.73
2022-12-15T11:24:21.851Z,33.07
2022-12-15T11:26:56.299Z,29.80
2022-12-15T11:29:59.867Z,28.47
2022-12-15T11:32:29.688Z,28.03
2022-12-15T11:34:56.467Z,27.63
2022-12-15T11:40:25.487Z,29.23
2022-12-15T11:42:51.876Z,29.17
2022-12-15T11:45:25.785Z,29.07
2022-12-15T11:48:21.830Z,29.60
2022-12-15T11:51:07.064Z,32.00
2022-12-15T11:53:54.245Z,34.93
2022-12-15T11:56:30.847Z,36.13
2022-12-15T11:59:15.549Z,34.50
2022-12-15T12:01:55.269Z,34.70
2022-12-15T12:04:55.710Z,35.47
2022-12-15T12:07:41.782Z,37.57
2022-12-15T12:10:23.187Z,37.53
2022-12-15T12:12:53.809Z,38.57
2022-12-15T12:15:28.175Z,39.37
2022-12-15T12:18:27.156Z,38.23
2022-12-15T12:21:01.596Z,42.27
2022-12-15T12:23:44.066Z,39.73
2022-12-15T12:26:15.939Z,38.73
2022-12-15T12:28:48.637Z,41.83
2022-12-15T12:31:34.547Z,42.40
2022-12-15T12:34:04.433Z,41.10
2022-12-15T12:36:30.983Z,41.83
2022-12-15T12:38:57.896Z,42.97
2022-12-15T12:41:33.369Z,39.57
2022-12-15T12:44:04.542Z,40.77
2022-12-15T12:46:34.385Z,42.80
2022-12-15T12:49:07.006Z,43.30
2022-12-15T12:51:38.698Z,40.43
2022-12-15T12:54:36.093Z,39.27
2022-12-15T12:57:29.614Z,42.77
2022-12-15T13:00:01.273Z,36.83
2022-12-15T13:02:27.793Z,39.30
2022-12-15T13:05:01.481Z,38.97
2022-12-15T13:07:40.648Z,39.33
2022-12-15T13:10:21.613Z,36.27
2022-12-15T13:12:55.888Z,36.13
2022-12-15T13:15:39.170Z,37.33
2022-12-15T13:18:25.070Z,37.73
2022-12-15T13:20:55.847Z,36.83
2022-12-15T13:23:22.363Z,38.87
2022-12-15T13:25:57.491Z,33.50
2022-12-15T13:28:39.072Z,33.60
2022-12-15T13:31:18.009Z,32.10
2022-12-15T13:34:10.379Z,34.27
2022-12-15T13:36:36.756Z,35.57
2022-12-15T13:39:15.239Z,33.00
2022-12-15T13:42:23.647Z,32.07
2022-12-15T13:44:41.866Z,31.33
2022-12-15T13:47:14.666Z,33.83
2022-12-15T13:49:53.098Z,34.80
2022-12-15T13:55:37.557Z,35.30
2022-12-15T13:58:13.534Z,37.50
2022-12-15T14:00:48.808Z,39.30
2022-12-15T14:03:17.948Z,40.90
2022-12-15T14:05:52.668Z,36.30
2022-12-15T14:08:21.269Z,34.50
2022-12-15T14:10:56.084Z,35.17
2022-12-15T14:13:32.622Z,37.27
2022-12-15T14:16:04.890Z,35.33
2022-12-15T14:18:34.112Z,36.00
2022-12-15T14:21:01.968Z,35.10
2022-12-15T14:23:32.267Z,37.03
2022-12-15T14:26:13.526Z,38.60
2022-12-15T14:28:42.082Z,35.43
2022-12-15T14:31:20.546Z,36.37
2022-12-15T14:33:50.799Z,35.63
2022-12-15T14:36:19.642Z,38.33
2022-12-15T14:39:02.238Z,33.93
2022-12-15T14:41:32.267Z,34.13
2022-12-15T14:46:54.952Z,32.47
2022-12-15T14:49:24.174Z,33.93
2022-12-15T14:51:54.055Z,33.00
2022-12-15T14:54:39.049Z,33.00
2022-12-15T14:57:17.385Z,34.33
2022-12-15T14:59:45.447Z,33.23
2022-12-15T15:02:13.806Z,33.87
2022-12-15T15:03:06.023Z,35.60
2022-12-15T15:03:09.173Z,27.10
2022-12-15T15:03:10.263Z,33.23
2022-12-15T15:04:41.334Z,32.07
2022-12-15T15:07:16.908Z,32.93
2022-12-15T15:09:44.909Z,32.33
2022-12-15T15:12:19.802Z,33.20
2022-12-15T15:14:48.808Z,31.27
2022-12-15T15:17:16.959Z,28.77
2022-12-15T15:19:54.949Z,31.63
2022-12-15T15:22:31.795Z,31.70
2022-12-15T15:24:58.340Z,30.57
2022-12-15T15:27:34.870Z,33.20
2022-12-15T15:30:14.389Z,30.57
2022-12-15T15:33:13.639Z,29.30
2022-12-15T15:35:43.705Z,31.30
2022-12-15T15:38:24.880Z,29.30
2022-12-15T15:40:56.057Z,31.03
2022-12-15T15:43:23.977Z,30.77
2022-12-15T15:45:50.850Z,28.90
2022-12-15T15:48:26.413Z,32.33
2022-12-15T15:50:53.315Z,30.60
2022-12-15T15:53:22.897Z,30.67
2022-12-15T15:55:51.443Z,30.07
2022-12-15T15:58:17.917Z,31.50
2022-12-15T16:00:44.465Z,30.20
2022-12-15T16:03:11.223Z,30.93
2022-12-15T16:05:38.187Z,32.27
2022-12-15T16:08:05.149Z,31.87
2022-12-15T16:10:34.519Z,32.40
2022-12-15T16:13:01.980Z,31.50
2022-12-15T16:15:32.773Z,32.83
2022-12-15T16:17:59.521Z,30.87
2022-12-15T16:20:28.958Z,30.00
2022-12-15T16:23:04.794Z,30.93
2022-12-15T16:25:42.439Z,30.50
2022-12-15T16:28:15.982Z,30.43
2022-12-15T16:30:43.362Z,32.77
2022-12-15T16:33:10.985Z,33.77
2022-12-15T16:35:38.021Z,33.20
2022-12-15T16:38:05.905Z,33.80
2022-12-15T16:40:38.010Z,33.27
2022-12-15T16:43:17.541Z,35.73
2022-12-15T16:45:45.555Z,30.73
2022-12-15T16:48:12.753Z,31.87
2022-12-15T16:50:41.732Z,34.23
2022-12-15T16:53:20.343Z,35.97
2022-12-15T16:55:47.082Z,32.30
2022-12-15T16:58:15.711Z,33.60
2022-12-15T17:00:42.326Z,31.93
2022-12-15T17:03:16.075Z,34.60
2022-12-15T17:05:44.754Z,34.27
2022-12-15T17:08:23.208Z,34.03
2022-12-15T17:10:50.348Z,34.93
2022-12-15T17:13:20.264Z,33.63
2022-12-15T17:15:47.264Z,34.17
2022-12-15T17:18:14.996Z,35.10
2022-12-15T17:20:41.526Z,34.50
2022-12-15T17:23:13.444Z,35.17
2022-12-15T17:26:18.619Z,34.17
2022-12-15T17:28:33.875Z,33.93
2022-12-15T17:31:00.619Z,36.37
2022-12-15T17:33:32.629Z,34.97
2022-12-15T17:36:04.596Z,36.37
2022-12-15T17:38:31.625Z,35.40
2022-12-15T17:40:58.152Z,34.97
2022-12-15T17:43:31.903Z,36.73
2022-12-15T17:46:01.836Z,35.67
2022-12-15T17:48:28.387Z,35.40
2022-12-15T17:50:54.866Z,36.03
2022-12-15T17:53:22.881Z,37.27
2022-12-15T17:55:50.102Z,39.77
2022-12-15T17:58:26.815Z,39.93
2022-12-15T18:00:55.573Z,38.97
2022-12-15T18:03:23.291Z,43.00
2022-12-15T18:05:51.949Z,43.90
2022-12-15T18:08:21.834Z,49.30
2022-12-15T18:10:50.606Z,44.97
2022-12-15T18:13:19.881Z,44.53
2022-12-15T18:15:47.335Z,48.07
2022-12-15T18:18:14.646Z,44.30
2022-12-15T18:20:41.460Z,42.83
2022-12-15T18:23:14.943Z,40.17
2022-12-15T18:25:42.301Z,37.70
2022-12-15T18:28:19.670Z,39.97
2022-12-15T18:30:46.508Z,39.90
2022-12-15T18:33:13.133Z,40.20
2022-12-15T18:35:41.733Z,39.37
2022-12-15T18:38:22.345Z,37.33
2022-12-15T18:40:50.816Z,39.10
2022-12-15T18:43:25.611Z,38.23
2022-12-15T18:45:52.478Z,37.63
2022-12-15T18:48:27.844Z,39.60
2022-12-15T18:50:55.894Z,41.63
2022-12-15T18:53:26.968Z,41.83
2022-12-15T18:55:53.541Z,38.73
2022-12-15T18:58:27.207Z,39.07
2022-12-15T19:00:54.944Z,37.47
2022-12-15T19:03:22.186Z,36.77
2022-12-15T19:05:50.008Z,36.13
2022-12-15T19:08:20.260Z,30.13
2022-12-15T19:10:50.908Z,32.13
2022-12-15T19:13:20.012Z,33.53
2022-12-15T19:15:46.928Z,32.90
2022-12-15T19:18:36.191Z,31.73
2022-12-15T19:21:42.187Z,32.67
2022-12-15T19:24:47.391Z,32.40
2022-12-15T19:27:23.000Z,31.30
2022-12-15T19:29:50.528Z,31.47
2022-12-15T19:32:17.062Z,32.37
2022-12-15T19:34:43.546Z,31.27
2022-12-15T19:37:23.195Z,34.30
2022-12-15T19:39:49.881Z,33.47
2022-12-15T19:42:21.359Z,30.77
2022-12-15T19:44:48.423Z,33.77
2022-12-15T19:47:14.901Z,30.77
2022-12-15T19:49:42.371Z,30.70
2022-12-15T19:52:15.822Z,31.40
2022-12-15T19:54:43.277Z,34.03
2022-12-15T19:57:13.941Z,32.80
2022-12-15T19:59:40.801Z,32.53
2022-12-15T20:02:15.454Z,32.83
2022-12-15T20:04:42.009Z,32.27
2022-12-15T20:07:18.564Z,30.83
2022-12-15T20:09:45.198Z,31.33
2022-12-15T20:12:18.743Z,30.20
2022-12-15T20:14:48.661Z,28.80
2022-12-15T20:17:15.159Z,31.77
2022-12-15T20:19:42.317Z,27.40
2022-12-15T20:22:17.279Z,27.23
2022-12-15T20:24:44.617Z,29.43
2022-12-15T20:27:18.392Z,29.33
2022-12-15T20:29:44.979Z,32.33
2022-12-15T20:32:19.480Z,32.63
2022-12-15T20:34:46.596Z,32.83
2022-12-15T20:37:27.608Z,31.23
2022-12-15T20:39:57.690Z,30.37
2022-12-15T20:42:24.982Z,30.03
2022-12-15T20:44:51.521Z,29.50
2022-12-15T20:47:27.622Z,29.67
2022-12-15T20:49:55.251Z,31.57
2022-12-15T20:52:25.578Z,30.20
2022-12-15T20:54:53.509Z,29.40
2022-12-15T20:57:20.542Z,30.33
2022-12-15T20:59:47.184Z,28.53
2022-12-15T21:02:17.857Z,30.17
2022-12-15T21:04:44.773Z,30.60
2022-12-15T21:07:12.145Z,29.10
2022-12-15T21:09:38.907Z,26.43
2022-12-15T21:12:16.441Z,26.90
2022-12-15T21:14:43.028Z,28.97
2022-12-15T21:17:16.940Z,27.03
2022-12-15T21:19:44.111Z,28.70
2022-12-15T21:22:22.077Z,28.37
2022-12-15T21:24:53.077Z,30.67
2022-12-15T21:27:20.106Z,29.57
2022-12-15T21:29:52.270Z,31.27
2022-12-15T21:32:19.731Z,31.97
2022-12-15T21:34:46.240Z,31.87
2022-12-15T21:37:23.086Z,30.17
2022-12-15T21:39:49.516Z,32.73
2022-12-15T21:42:17.354Z,32.27
2022-12-15T21:44:44.578Z,34.57
2022-12-15T21:47:24.198Z,32.23
2022-12-15T21:49:50.913Z,32.77
2022-12-15T21:52:17.919Z,30.57
2022-12-15T21:54:44.728Z,32.07
2022-12-15T21:57:12.329Z,32.43
2022-12-15T21:59:39.086Z,32.57
2022-12-15T22:02:26.037Z,33.00
2022-12-15T22:04:52.999Z,30.70
2022-12-15T22:07:21.538Z,31.60
2022-12-15T22:09:48.103Z,32.33
2022-12-15T22:12:24.537Z,30.63
2022-12-15T22:14:52.086Z,30.97
2022-12-15T22:17:22.376Z,31.80
2022-12-15T22:19:48.856Z,30.10
2022-12-15T22:22:16.641Z,30.33
2022-12-15T22:24:43.174Z,30.03
2022-12-15T22:27:22.057Z,30.83
2022-12-15T22:29:49.238Z,31.50
2022-12-15T22:32:16.358Z,29.60
2022-12-15T22:34:43.162Z,30.27
2022-12-15T22:37:09.570Z,29.70
2022-12-15T22:39:35.993Z,30.93
2022-12-15T22:42:04.294Z,29.93
2022-12-15T22:44:33.718Z,31.73
2022-12-15T22:47:01.576Z,27.90
2022-12-15T22:49:31.020Z,29.93
2022-12-15T22:51:58.077Z,30.73
2022-12-15T22:54:26.275Z,30.10
2022-12-15T22:56:59.164Z,29.53
2022-12-15T22:59:41.236Z,30.47
2022-12-15T23:02:08.985Z,30.47
2022-12-15T23:04:35.932Z,30.77
2022-12-15T23:07:04.115Z,30.90
2022-12-15T23:09:30.827Z,31.77
2022-12-15T23:11:58.922Z,30.93
2022-12-15T23:14:44.196Z,29.70
2022-12-15T23:17:11.960Z,29.20
2022-12-15T23:19:45.906Z,29.83
2022-12-15T23:22:12.764Z,29.73
2022-12-15T23:24:39.169Z,30.97
2022-12-15T23:27:05.732Z,29.77
2022-12-15T23:29:32.361Z,31.50
2022-12-15T23:31:58.779Z,29.80
2022-12-15T23:34:25.314Z,32.00
2022-12-15T23:36:51.992Z,30.10
2022-12-15T23:39:18.415Z,31.83
2022-12-15T23:41:44.970Z,29.40
2022-12-15T23:44:12.337Z,28.63
2022-12-15T23:46:38.818Z,28.40
2022-12-15T23:49:05.395Z,28.90
2022-12-15T23:51:32.522Z,29.83
2022-12-15T23:53:59.651Z,29.97
2022-12-15T23:56:26.220Z,30.70
2022-12-15T23:58:57.552Z,30.30
